sensor_id;sensor_type;location;lat;lon;timestamp;P1;durP1;ratioP1;P2;durP2;ratioP2
9834;SDS011;4956;50.996;13.716;2023-02-15T00:01:29;23.65;;;12.75;;
9834;SDS011;4956;50.996;13.716;2023-02-15T00:04:50;26.15;;;13.65;;
9834;SDS011;4956;50.996;13.716;2023-02-15T00:08:10;26.13;;;14.07;;
9834;SDS011;4956;50.996;13.716;2023-02-15T00:11:30;28.73;;;14.80;;
9834;SDS011;4956;50.996;13.716;2023-02-15T00:15:00;23.55;;;12.75;;
9834;SDS011;4956;50.996;13.716;2023-02-15T00:18:20;23.92;;;13.10;;
9834;SDS011;4956;50.996;13.716;2023-02-15T00:21:40;24.00;;;13.07;;
9834;SDS011;4956;50.996;13.716;2023-02-15T00:25:01;22.30;;;12.48;;
9834;SDS011;4956;50.996;13.716;2023-02-15T00:28:21;20.80;;;12.25;;
9834;SDS011;4956;50.996;13.716;2023-02-15T00:31:41;19.90;;;11.52;;
9834;SDS011;4956;50.996;13.716;2023-02-15T00:35:02;24.80;;;13.57;;
9834;SDS011;4956;50.996;13.716;2023-02-15T00:38:22;24.30;;;12.90;;
9834;SDS011;4956;50.996;13.716;2023-02-15T00:41:43;23.20;;;13.63;;
9834;SDS011;4956;50.996;13.716;2023-02-15T00:45:04;27.67;;;14.55;;
9834;SDS011;4956;50.996;13.716;2023-02-15T00:48:24;27.02;;;14.38;;
9834;SDS011;4956;50.996;13.716;2023-02-15T00:51:45;26.85;;;14.73;;
9834;SDS011;4956;50.996;13.716;2023-02-15T00:55:05;25.83;;;13.88;;
9834;SDS011;4956;50.996;13.716;2023-02-15T00:58:26;25.02;;;13.73;;
9834;SDS011;4956;50.996;13.716;2023-02-15T01:01:46;25.40;;;14.05;;
9834;SDS011;4956;50.996;13.716;2023-02-15T01:05:06;22.88;;;13.10;;
9834;SDS011;4956;50.996;13.716;2023-02-15T01:08:27;25.65;;;14.13;;
9834;SDS011;4956;50.996;13.716;2023-02-15T01:11:47;24.35;;;13.25;;
9834;SDS011;4956;50.996;13.716;2023-02-15T01:15:08;22.75;;;13.15;;
9834;SDS011;4956;50.996;13.716;2023-02-15T01:18:28;24.13;;;13.07;;
9834;SDS011;4956;50.996;13.716;2023-02-15T01:21:48;21.80;;;12.60;;
9834;SDS011;4956;50.996;13.716;2023-02-15T01:25:09;22.60;;;13.02;;
9834;SDS011;4956;50.996;13.716;2023-02-15T01:28:29;22.60;;;12.43;;
9834;SDS011;4956;50.996;13.716;2023-02-15T01:31:50;23.27;;;12.43;;
9834;SDS011;4956;50.996;13.716;2023-02-15T01:35:10;25.98;;;13.50;;
9834;SDS011;4956;50.996;13.716;2023-02-15T01:38:31;23.75;;;13.52;;
9834;SDS011;4956;50.996;13.716;2023-02-15T01:41:52;24.42;;;13.55;;
9834;SDS011;4956;50.996;13.716;2023-02-15T01:48:43;19.77;;;11.48;;
9834;SDS011;4956;50.996;13.716;2023-02-15T01:52:05;20.40;;;11.52;;
9834;SDS011;4956;50.996;13.716;2023-02-15T01:55:27;17.80;;;10.07;;
9834;SDS011;4956;50.996;13.716;2023-02-15T01:58:51;20.52;;;10.52;;
9834;SDS011;4956;50.996;13.716;2023-02-15T02:02:15;18.20;;;10.55;;
9834;SDS011;4956;50.996;13.716;2023-02-15T02:05:36;20.05;;;11.00;;
9834;SDS011;4956;50.996;13.716;2023-02-15T02:08:58;16.90;;;10.13;;
9834;SDS011;4956;50.996;13.716;2023-02-15T02:12:18;17.95;;;10.07;;
9834;SDS011;4956;50.996;13.716;2023-02-15T02:19:10;18.48;;;10.60;;
9834;SDS011;4956;50.996;13.716;2023-02-15T02:34:36;20.92;;;11.80;;
9834;SDS011;4956;50.996;13.716;2023-02-15T02:41:55;22.83;;;11.95;;
9834;SDS011;4956;50.996;13.716;2023-02-15T02:45:39;21.90;;;12.48;;
9834;SDS011;4956;50.996;13.716;2023-02-15T02:49:03;24.55;;;12.88;;
9834;SDS011;4956;50.996;13.716;2023-02-15T02:52:44;24.42;;;12.65;;
9834;SDS011;4956;50.996;13.716;2023-02-15T02:56:18;26.05;;;12.88;;
9834;SDS011;4956;50.996;13.716;2023-02-15T03:00:19;23.92;;;12.73;;
9834;SDS011;4956;50.996;13.716;2023-02-15T03:03:44;21.15;;;11.77;;
9834;SDS011;4956;50.996;13.716;2023-02-15T03:07:08;24.48;;;12.25;;
9834;SDS011;4956;50.996;13.716;2023-02-15T03:10:31;23.70;;;12.45;;
9834;SDS011;4956;50.996;13.716;2023-02-15T03:13:52;24.30;;;12.63;;
9834;SDS011;4956;50.996;13.716;2023-02-15T03:17:13;22.92;;;11.75;;
9834;SDS011;4956;50.996;13.716;2023-02-15T03:20:35;22.08;;;11.73;;
9834;SDS011;4956;50.996;13.716;2023-02-15T03:24:10;22.17;;;11.13;;
9834;SDS011;4956;50.996;13.716;2023-02-15T03:27:41;21.52;;;11.93;;
9834;SDS011;4956;50.996;13.716;2023-02-15T03:31:04;21.27;;;10.68;;
9834;SDS011;4956;50.996;13.716;2023-02-15T03:34:25;19.77;;;10.88;;
9834;SDS011;4956;50.996;13.716;2023-02-15T03:37:47;24.38;;;12.60;;
9834;SDS011;4956;50.996;13.716;2023-02-15T03:41:09;20.83;;;12.02;;
9834;SDS011;4956;50.996;13.716;2023-02-15T03:44:31;25.15;;;12.57;;
9834;SDS011;4956;50.996;13.716;2023-02-15T03:47:52;22.13;;;12.30;;
9834;SDS011;4956;50.996;13.716;2023-02-15T03:51:17;27.00;;;13.23;;
9834;SDS011;4956;50.996;13.716;2023-02-15T03:54:56;26.33;;;13.07;;
9834;SDS011;4956;50.996;13.716;2023-02-15T03:58:16;26.08;;;12.85;;
9834;SDS011;4956;50.996;13.716;2023-02-15T04:02:00;27.15;;;13.40;;
9834;SDS011;4956;50.996;13.716;2023-02-15T04:05:28;26.80;;;13.02;;
9834;SDS011;4956;50.996;13.716;2023-02-15T04:08:48;27.15;;;13.77;;
9834;SDS011;4956;50.996;13.716;2023-02-15T04:12:27;29.23;;;13.77;;
9834;SDS011;4956;50.996;13.716;2023-02-15T04:15:48;26.45;;;13.10;;
9834;SDS011;4956;50.996;13.716;2023-02-15T04:19:24;29.02;;;14.00;;
9834;SDS011;4956;50.996;13.716;2023-02-15T04:23:05;27.00;;;13.25;;
9834;SDS011;4956;50.996;13.716;2023-02-15T04:26:44;31.58;;;14.35;;
9834;SDS011;4956;50.996;13.716;2023-02-15T04:30:05;24.98;;;12.60;;
9834;SDS011;4956;50.996;13.716;2023-02-15T04:33:26;26.02;;;12.35;;
9834;SDS011;4956;50.996;13.716;2023-02-15T04:36:46;25.25;;;13.65;;
9834;SDS011;4956;50.996;13.716;2023-02-15T04:40:07;29.92;;;13.38;;
9834;SDS011;4956;50.996;13.716;2023-02-15T04:43:29;28.35;;;13.73;;
9834;SDS011;4956;50.996;13.716;2023-02-15T04:46:50;30.92;;;13.75;;
9834;SDS011;4956;50.996;13.716;2023-02-15T04:50:10;24.80;;;13.32;;
9834;SDS011;4956;50.996;13.716;2023-02-15T04:53:31;28.00;;;12.70;;
9834;SDS011;4956;50.996;13.716;2023-02-15T04:56:51;24.83;;;12.23;;
9834;SDS011;4956;50.996;13.716;2023-02-15T05:00:11;25.27;;;12.73;;
9834;SDS011;4956;50.996;13.716;2023-02-15T05:03:32;26.20;;;12.32;;
9834;SDS011;4956;50.996;13.716;2023-02-15T05:06:52;22.77;;;12.10;;
9834;SDS011;4956;50.996;13.716;2023-02-15T05:10:12;25.27;;;11.88;;
9834;SDS011;4956;50.996;13.716;2023-02-15T05:13:33;22.92;;;11.80;;
9834;SDS011;4956;50.996;13.716;2023-02-15T05:16:55;23.55;;;12.15;;
9834;SDS011;4956;50.996;13.716;2023-02-15T05:20:16;20.17;;;10.82;;
9834;SDS011;4956;50.996;13.716;2023-02-15T05:23:37;20.13;;;10.63;;
9834;SDS011;4956;50.996;13.716;2023-02-15T05:26:57;22.23;;;10.82;;
9834;SDS011;4956;50.996;13.716;2023-02-15T05:30:36;18.52;;;9.50;;
9834;SDS011;4956;50.996;13.716;2023-02-15T05:33:56;16.02;;;9.00;;
9834;SDS011;4956;50.996;13.716;2023-02-15T05:37:17;18.17;;;9.10;;
9834;SDS011;4956;50.996;13.716;2023-02-15T05:40:37;16.45;;;8.68;;
9834;SDS011;4956;50.996;13.716;2023-02-15T05:43:57;16.95;;;8.85;;
9834;SDS011;4956;50.996;13.716;2023-02-15T05:47:17;18.07;;;9.23;;
9834;SDS011;4956;50.996;13.716;2023-02-15T05:50:38;17.05;;;9.10;;
9834;SDS011;4956;50.996;13.716;2023-02-15T05:53:58;18.65;;;9.63;;
9834;SDS011;4956;50.996;13.716;2023-02-15T05:57:18;17.23;;;9.70;;
9834;SDS011;4956;50.996;13.716;2023-02-15T06:00:38;18.48;;;9.98;;
9834;SDS011;4956;50.996;13.716;2023-02-15T06:03:59;25.65;;;11.82;;
9834;SDS011;4956;50.996;13.716;2023-02-15T06:07:19;25.33;;;11.98;;
9834;SDS011;4956;50.996;13.716;2023-02-15T06:10:40;23.20;;;10.95;;
9834;SDS011;4956;50.996;13.716;2023-02-15T06:14:00;19.17;;;9.70;;
9834;SDS011;4956;50.996;13.716;2023-02-15T06:17:20;18.70;;;10.13;;
9834;SDS011;4956;50.996;13.716;2023-02-15T06:20:41;19.80;;;10.13;;
9834;SDS011;4956;50.996;13.716;2023-02-15T06:24:02;21.10;;;10.10;;
9834;SDS011;4956;50.996;13.716;2023-02-15T06:27:22;20.30;;;10.48;;
9834;SDS011;4956;50.996;13.716;2023-02-15T06:30:42;21.27;;;10.95;;
9834;SDS011;4956;50.996;13.716;2023-02-15T06:34:03;19.73;;;10.48;;
9834;SDS011;4956;50.996;13.716;2023-02-15T06:37:23;21.42;;;11.10;;
9834;SDS011;4956;50.996;13.716;2023-02-15T06:40:44;21.63;;;12.02;;
9834;SDS011;4956;50.996;13.716;2023-02-15T06:44:04;24.77;;;12.30;;
9834;SDS011;4956;50.996;13.716;2023-02-15T06:47:24;25.50;;;12.00;;
9834;SDS011;4956;50.996;13.716;2023-02-15T06:50:45;24.70;;;11.27;;
9834;SDS011;4956;50.996;13.716;2023-02-15T06:54:05;24.15;;;11.10;;
9834;SDS011;4956;50.996;13.716;2023-02-15T06:57:25;21.80;;;10.50;;
9834;SDS011;4956;50.996;13.716;2023-02-15T07:00:45;21.77;;;12.02;;
9834;SDS011;4956;50.996;13.716;2023-02-15T07:04:06;24.07;;;13.43;;
9834;SDS011;4956;50.996;13.716;2023-02-15T07:07:26;19.55;;;11.10;;
9834;SDS011;4956;50.996;13.716;2023-02-15T07:10:48;18.30;;;10.32;;
9834;SDS011;4956;50.996;13.716;2023-02-15T07:14:09;21.13;;;10.27;;
9834;SDS011;4956;50.996;13.716;2023-02-15T07:17:29;18.02;;;10.02;;
9834;SDS011;4956;50.996;13.716;2023-02-15T07:20:51;18.60;;;10.45;;
9834;SDS011;4956;50.996;13.716;2023-02-15T07:24:11;17.97;;;9.73;;
9834;SDS011;4956;50.996;13.716;2023-02-15T07:27:32;15.73;;;8.82;;
9834;SDS011;4956;50.996;13.716;2023-02-15T07:30:52;15.15;;;8.80;;
9834;SDS011;4956;50.996;13.716;2023-02-15T07:34:13;13.50;;;7.45;;
9834;SDS011;4956;50.996;13.716;2023-02-15T07:37:33;15.27;;;8.40;;
9834;SDS011;4956;50.996;13.716;2023-02-15T07:41:00;15.27;;;8.35;;
9834;SDS011;4956;50.996;13.716;2023-02-15T07:44:21;14.73;;;8.45;;
9834;SDS011;4956;50.996;13.716;2023-02-15T07:47:41;16.20;;;8.65;;
9834;SDS011;4956;50.996;13.716;2023-02-15T07:51:03;15.10;;;9.20;;
9834;SDS011;4956;50.996;13.716;2023-02-15T07:54:24;16.85;;;9.35;;
9834;SDS011;4956;50.996;13.716;2023-02-15T07:57:45;15.38;;;8.95;;
9834;SDS011;4956;50.996;13.716;2023-02-15T08:01:06;17.50;;;9.85;;
9834;SDS011;4956;50.996;13.716;2023-02-15T08:04:27;18.40;;;10.30;;
9834;SDS011;4956;50.996;13.716;2023-02-15T08:07:47;18.77;;;11.18;;
9834;SDS011;4956;50.996;13.716;2023-02-15T08:11:18;17.67;;;9.95;;
9834;SDS011;4956;50.996;13.716;2023-02-15T08:14:46;17.77;;;10.15;;
9834;SDS011;4956;50.996;13.716;2023-02-15T08:18:06;15.60;;;9.27;;
9834;SDS011;4956;50.996;13.716;2023-02-15T08:21:27;18.02;;;9.85;;
9834;SDS011;4956;50.996;13.716;2023-02-15T08:24:48;19.13;;;9.80;;
9834;SDS011;4956;50.996;13.716;2023-02-15T08:28:08;18.92;;;10.30;;
9834;SDS011;4956;50.996;13.716;2023-02-15T08:31:28;15.88;;;9.73;;
9834;SDS011;4956;50.996;13.716;2023-02-15T08:34:49;19.15;;;10.70;;
9834;SDS011;4956;50.996;13.716;2023-02-15T08:38:09;17.80;;;10.07;;
9834;SDS011;4956;50.996;13.716;2023-02-15T08:41:31;20.13;;;10.48;;
9834;SDS011;4956;50.996;13.716;2023-02-15T08:44:55;19.38;;;10.10;;
9834;SDS011;4956;50.996;13.716;2023-02-15T08:48:15;17.70;;;10.35;;
9834;SDS011;4956;50.996;13.716;2023-02-15T08:51:37;20.67;;;10.25;;
9834;SDS011;4956;50.996;13.716;2023-02-15T08:54:58;16.67;;;10.10;;
9834;SDS011;4956;50.996;13.716;2023-02-15T08:58:18;18.50;;;10.48;;
9834;SDS011;4956;50.996;13.716;2023-02-15T09:01:39;18.60;;;10.25;;
9834;SDS011;4956;50.996;13.716;2023-02-15T09:04:59;18.88;;;9.88;;
9834;SDS011;4956;50.996;13.716;2023-02-15T09:08:19;20.15;;;10.52;;
9834;SDS011;4956;50.996;13.716;2023-02-15T09:11:41;18.55;;;10.93;;
9834;SDS011;4956;50.996;13.716;2023-02-15T09:15:02;18.85;;;10.40;;
9834;SDS011;4956;50.996;13.716;2023-02-15T09:18:23;17.27;;;10.10;;
9834;SDS011;4956;50.996;13.716;2023-02-15T09:21:43;18.90;;;10.65;;
9834;SDS011;4956;50.996;13.716;2023-02-15T09:25:03;19.60;;;11.00;;
9834;SDS011;4956;50.996;13.716;2023-02-15T09:28:24;19.27;;;11.00;;
9834;SDS011;4956;50.996;13.716;2023-02-15T09:31:45;18.80;;;10.60;;
9834;SDS011;4956;50.996;13.716;2023-02-15T09:35:07;17.55;;;9.60;;
9834;SDS011;4956;50.996;13.716;2023-02-15T09:38:27;20.58;;;10.73;;
9834;SDS011;4956;50.996;13.716;2023-02-15T09:45:45;16.25;;;9.98;;
9834;SDS011;4956;50.996;13.716;2023-02-15T09:53:15;17.50;;;10.27;;
9834;SDS011;4956;50.996;13.716;2023-02-15T09:56:52;18.70;;;10.15;;
9834;SDS011;4956;50.996;13.716;2023-02-15T10:04:13;17.30;;;9.98;;
9834;SDS011;4956;50.996;13.716;2023-02-15T10:07:47;17.42;;;10.23;;
9834;SDS011;4956;50.996;13.716;2023-02-15T10:11:17;18.23;;;10.35;;
9834;SDS011;4956;50.996;13.716;2023-02-15T10:26:22;21.85;;;11.05;;
9834;SDS011;4956;50.996;13.716;2023-02-15T10:30:01;21.15;;;11.40;;
9834;SDS011;4956;50.996;13.716;2023-02-15T10:33:40;18.10;;;11.15;;
9834;SDS011;4956;50.996;13.716;2023-02-15T10:37:04;19.13;;;11.02;;
9834;SDS011;4956;50.996;13.716;2023-02-15T10:51:26;25.15;;;12.35;;
9834;SDS011;4956;50.996;13.716;2023-02-15T10:55:24;23.65;;;13.00;;
9834;SDS011;4956;50.996;13.716;2023-02-15T11:00:14;21.45;;;12.55;;
9834;SDS011;4956;50.996;13.716;2023-02-15T11:07:21;24.48;;;12.88;;
9834;SDS011;4956;50.996;13.716;2023-02-15T11:14:13;23.73;;;13.38;;
9834;SDS011;4956;50.996;13.716;2023-02-15T11:17:35;21.67;;;12.48;;
9834;SDS011;4956;50.996;13.716;2023-02-15T11:21:12;23.67;;;12.80;;
9834;SDS011;4956;50.996;13.716;2023-02-15T11:24:43;20.85;;;12.63;;
9834;SDS011;4956;50.996;13.716;2023-02-15T11:28:05;20.80;;;12.25;;
9834;SDS011;4956;50.996;13.716;2023-02-15T11:31:45;20.48;;;11.45;;
9834;SDS011;4956;50.996;13.716;2023-02-15T11:38:32;16.52;;;10.45;;
9834;SDS011;4956;50.996;13.716;2023-02-15T11:41:53;20.15;;;11.85;;
9834;SDS011;4956;50.996;13.716;2023-02-15T11:45:19;17.65;;;10.30;;
9834;SDS011;4956;50.996;13.716;2023-02-15T11:48:42;16.83;;;10.35;;
9834;SDS011;4956;50.996;13.716;2023-02-15T11:52:06;17.45;;;10.00;;
9834;SDS011;4956;50.996;13.716;2023-02-15T11:55:30;16.30;;;9.70;;
9834;SDS011;4956;50.996;13.716;2023-02-15T11:58:55;17.98;;;10.27;;
9834;SDS011;4956;50.996;13.716;2023-02-15T12:02:24;18.55;;;10.48;;
9834;SDS011;4956;50.996;13.716;2023-02-15T12:05:51;18.02;;;10.35;;
9834;SDS011;4956;50.996;13.716;2023-02-15T12:09:23;15.20;;;9.38;;
9834;SDS011;4956;50.996;13.716;2023-02-15T12:13:08;15.07;;;9.52;;
9834;SDS011;4956;50.996;13.716;2023-02-15T12:16:48;16.45;;;10.00;;
9834;SDS011;4956;50.996;13.716;2023-02-15T12:23:34;18.20;;;10.48;;
9834;SDS011;4956;50.996;13.716;2023-02-15T12:26:59;15.52;;;9.48;;
9834;SDS011;4956;50.996;13.716;2023-02-15T12:30:29;16.35;;;9.68;;
9834;SDS011;4956;50.996;13.716;2023-02-15T12:33:52;18.08;;;10.20;;
9834;SDS011;4956;50.996;13.716;2023-02-15T12:37:15;16.58;;;10.18;;
9834;SDS011;4956;50.996;13.716;2023-02-15T12:40:37;17.50;;;10.75;;
9834;SDS011;4956;50.996;13.716;2023-02-15T12:44:05;16.05;;;10.20;;
9834;SDS011;4956;50.996;13.716;2023-02-15T12:47:28;17.35;;;10.95;;
9834;SDS011;4956;50.996;13.716;2023-02-15T12:50:50;20.08;;;11.00;;
9834;SDS011;4956;50.996;13.716;2023-02-15T12:57:58;19.40;;;11.82;;
9834;SDS011;4956;50.996;13.716;2023-02-15T13:01:25;20.13;;;11.88;;
9834;SDS011;4956;50.996;13.716;2023-02-15T13:04:51;17.77;;;11.20;;
9834;SDS011;4956;50.996;13.716;2023-02-15T13:08:16;16.85;;;11.07;;
9834;SDS011;4956;50.996;13.716;2023-02-15T13:11:39;21.63;;;13.25;;
9834;SDS011;4956;50.996;13.716;2023-02-15T13:15:01;20.77;;;12.77;;
9834;SDS011;4956;50.996;13.716;2023-02-15T13:18:34;23.85;;;13.20;;
9834;SDS011;4956;50.996;13.716;2023-02-15T13:21:55;22.65;;;13.30;;
9834;SDS011;4956;50.996;13.716;2023-02-15T13:25:20;25.15;;;13.30;;
9834;SDS011;4956;50.996;13.716;2023-02-15T13:28:43;23.25;;;13.63;;
9834;SDS011;4956;50.996;13.716;2023-02-15T13:32:51;21.70;;;13.57;;
9834;SDS011;4956;50.996;13.716;2023-02-15T13:35:53;23.60;;;13.50;;
9834;SDS011;4956;50.996;13.716;2023-02-15T13:39:30;20.75;;;12.80;;
9834;SDS011;4956;50.996;13.716;2023-02-15T13:43:05;22.23;;;13.35;;
9834;SDS011;4956;50.996;13.716;2023-02-15T13:46:51;21.55;;;13.32;;
9834;SDS011;4956;50.996;13.716;2023-02-15T14:08:43;20.30;;;12.60;;
9834;SDS011;4956;50.996;13.716;2023-02-15T14:12:18;25.10;;;13.10;;
9834;SDS011;4956;50.996;13.716;2023-02-15T14:16:04;21.90;;;13.65;;
9834;SDS011;4956;50.996;13.716;2023-02-15T14:19:44;23.80;;;13.50;;
9834;SDS011;4956;50.996;13.716;2023-02-15T14:23:17;22.33;;;13.32;;
9834;SDS011;4956;50.996;13.716;2023-02-15T14:34:29;24.35;;;14.13;;
9834;SDS011;4956;50.996;13.716;2023-02-15T14:41:32;27.25;;;14.57;;
9834;SDS011;4956;50.996;13.716;2023-02-15T14:45:01;27.08;;;15.80;;
9834;SDS011;4956;50.996;13.716;2023-02-15T14:48:30;26.17;;;14.95;;
9834;SDS011;4956;50.996;13.716;2023-02-15T14:51:55;29.73;;;16.02;;
9834;SDS011;4956;50.996;13.716;2023-02-15T14:55:34;28.55;;;17.20;;
9834;SDS011;4956;50.996;13.716;2023-02-15T14:58:58;32.75;;;20.05;;
9834;SDS011;4956;50.996;13.716;2023-02-15T15:02:28;27.98;;;17.02;;
9834;SDS011;4956;50.996;13.716;2023-02-15T15:06:20;28.30;;;16.80;;
9834;SDS011;4956;50.996;13.716;2023-02-15T15:09:44;29.60;;;17.58;;
9834;SDS011;4956;50.996;13.716;2023-02-15T15:16:51;33.97;;;17.63;;
9834;SDS011;4956;50.996;13.716;2023-02-15T15:23:45;30.25;;;17.25;;
9834;SDS011;4956;50.996;13.716;2023-02-15T15:34:43;32.72;;;18.30;;
9834;SDS011;4956;50.996;13.716;2023-02-15T15:38:12;31.60;;;17.33;;
9834;SDS011;4956;50.996;13.716;2023-02-15T15:45:50;36.03;;;19.42;;
9834;SDS011;4956;50.996;13.716;2023-02-15T15:49:20;36.47;;;19.70;;
9834;SDS011;4956;50.996;13.716;2023-02-15T15:52:49;37.30;;;19.67;;
9834;SDS011;4956;50.996;13.716;2023-02-15T15:56:13;34.17;;;18.95;;
9834;SDS011;4956;50.996;13.716;2023-02-15T15:59:36;34.85;;;18.63;;
9834;SDS011;4956;50.996;13.716;2023-02-15T16:03:04;35.50;;;19.48;;
9834;SDS011;4956;50.996;13.716;2023-02-15T16:10:05;33.13;;;18.92;;
9834;SDS011;4956;50.996;13.716;2023-02-15T16:13:26;35.33;;;19.50;;
9834;SDS011;4956;50.996;13.716;2023-02-15T16:16:51;36.90;;;19.73;;
9834;SDS011;4956;50.996;13.716;2023-02-15T16:20:15;33.15;;;18.90;;
9834;SDS011;4956;50.996;13.716;2023-02-15T16:27:37;35.50;;;18.38;;
9834;SDS011;4956;50.996;13.716;2023-02-15T16:31:14;35.67;;;18.98;;
9834;SDS011;4956;50.996;13.716;2023-02-15T16:34:35;32.58;;;18.13;;
9834;SDS011;4956;50.996;13.716;2023-02-15T16:37:55;35.22;;;19.23;;
9834;SDS011;4956;50.996;13.716;2023-02-15T16:41:25;32.42;;;18.52;;
9834;SDS011;4956;50.996;13.716;2023-02-15T16:44:57;32.33;;;18.50;;
9834;SDS011;4956;50.996;13.716;2023-02-15T16:48:26;31.05;;;16.60;;
9834;SDS011;4956;50.996;13.716;2023-02-15T16:51:54;29.55;;;16.85;;
9834;SDS011;4956;50.996;13.716;2023-02-15T16:55:24;31.75;;;16.88;;
9834;SDS011;4956;50.996;13.716;2023-02-15T16:58:46;31.17;;;17.27;;
9834;SDS011;4956;50.996;13.716;2023-02-15T17:02:17;27.98;;;16.98;;
9834;SDS011;4956;50.996;13.716;2023-02-15T17:09:03;30.10;;;16.37;;
9834;SDS011;4956;50.996;13.716;2023-02-15T17:16:48;29.20;;;16.50;;
9834;SDS011;4956;50.996;13.716;2023-02-15T17:20:02;33.03;;;16.40;;
9834;SDS011;4956;50.996;13.716;2023-02-15T17:23:33;27.30;;;15.82;;
9834;SDS011;4956;50.996;13.716;2023-02-15T17:26:55;27.40;;;15.73;;
9834;SDS011;4956;50.996;13.716;2023-02-15T17:30:32;28.52;;;16.05;;
9834;SDS011;4956;50.996;13.716;2023-02-15T17:33:54;28.50;;;16.27;;
9834;SDS011;4956;50.996;13.716;2023-02-15T17:37:27;24.98;;;15.18;;
9834;SDS011;4956;50.996;13.716;2023-02-15T17:40:49;27.35;;;15.27;;
9834;SDS011;4956;50.996;13.716;2023-02-15T17:44:10;28.02;;;15.80;;
9834;SDS011;4956;50.996;13.716;2023-02-15T17:47:33;27.60;;;16.05;;
9834;SDS011;4956;50.996;13.716;2023-02-15T17:50:54;27.40;;;15.75;;
9834;SDS011;4956;50.996;13.716;2023-02-15T17:54:14;34.50;;;18.80;;
9834;SDS011;4956;50.996;13.716;2023-02-15T17:57:53;31.15;;;17.23;;
9834;SDS011;4956;50.996;13.716;2023-02-15T18:01:15;30.92;;;17.10;;
9834;SDS011;4956;50.996;13.716;2023-02-15T18:04:56;26.15;;;16.20;;
9834;SDS011;4956;50.996;13.716;2023-02-15T18:08:35;28.50;;;15.73;;
9834;SDS011;4956;50.996;13.716;2023-02-15T18:15:47;29.17;;;16.85;;
9834;SDS011;4956;50.996;13.716;2023-02-15T18:19:09;29.40;;;16.92;;
9834;SDS011;4956;50.996;13.716;2023-02-15T18:22:33;29.70;;;16.60;;
9834;SDS011;4956;50.996;13.716;2023-02-15T18:25:53;28.80;;;16.95;;
9834;SDS011;4956;50.996;13.716;2023-02-15T18:29:14;29.53;;;16.90;;
9834;SDS011;4956;50.996;13.716;2023-02-15T18:32:35;33.10;;;17.90;;
9834;SDS011;4956;50.996;13.716;2023-02-15T18:35:55;32.47;;;18.27;;
9834;SDS011;4956;50.996;13.716;2023-02-15T18:39:23;34.08;;;17.70;;
9834;SDS011;4956;50.996;13.716;2023-02-15T18:42:59;32.67;;;17.50;;
9834;SDS011;4956;50.996;13.716;2023-02-15T18:46:20;33.38;;;18.25;;
9834;SDS011;4956;50.996;13.716;2023-02-15T18:49:40;31.25;;;17.63;;
9834;SDS011;4956;50.996;13.716;2023-02-15T18:53:01;31.88;;;17.00;;
9834;SDS011;4956;50.996;13.716;2023-02-15T18:56:23;31.73;;;17.92;;
9834;SDS011;4956;50.996;13.716;2023-02-15T18:59:43;34.92;;;18.67;;
9834;SDS011;4956;50.996;13.716;2023-02-15T19:03:03;33.25;;;18.75;;
9834;SDS011;4956;50.996;13.716;2023-02-15T19:06:23;30.85;;;17.40;;
9834;SDS011;4956;50.996;13.716;2023-02-15T19:09:45;31.98;;;16.75;;
9834;SDS011;4956;50.996;13.716;2023-02-15T19:13:10;27.95;;;16.27;;
9834;SDS011;4956;50.996;13.716;2023-02-15T19:16:34;32.53;;;17.90;;
9834;SDS011;4956;50.996;13.716;2023-02-15T19:19:55;31.63;;;16.60;;
9834;SDS011;4956;50.996;13.716;2023-02-15T19:23:17;30.95;;;16.98;;
9834;SDS011;4956;50.996;13.716;2023-02-15T19:26:39;30.20;;;16.83;;
9834;SDS011;4956;50.996;13.716;2023-02-15T19:30:13;31.77;;;17.77;;
9834;SDS011;4956;50.996;13.716;2023-02-15T19:33:35;34.65;;;17.30;;
9834;SDS011;4956;50.996;13.716;2023-02-15T19:36:55;30.73;;;17.33;;
9834;SDS011;4956;50.996;13.716;2023-02-15T19:40:20;29.95;;;16.73;;
9834;SDS011;4956;50.996;13.716;2023-02-15T19:43:46;30.50;;;16.92;;
9834;SDS011;4956;50.996;13.716;2023-02-15T19:47:14;30.73;;;17.08;;
9834;SDS011;4956;50.996;13.716;2023-02-15T19:50:35;31.90;;;16.92;;
9834;SDS011;4956;50.996;13.716;2023-02-15T19:53:55;33.55;;;17.50;;
9834;SDS011;4956;50.996;13.716;2023-02-15T19:57:16;34.25;;;18.50;;
9834;SDS011;4956;50.996;13.716;2023-02-15T20:00:37;30.58;;;17.52;;
9834;SDS011;4956;50.996;13.716;2023-02-15T20:03:57;30.13;;;17.08;;
9834;SDS011;4956;50.996;13.716;2023-02-15T20:07:24;28.65;;;15.98;;
9834;SDS011;4956;50.996;13.716;2023-02-15T20:10:45;30.83;;;16.67;;
9834;SDS011;4956;50.996;13.716;2023-02-15T20:14:09;33.92;;;18.27;;
9834;SDS011;4956;50.996;13.716;2023-02-15T20:17:32;31.23;;;16.60;;
9834;SDS011;4956;50.996;13.716;2023-02-15T20:20:53;30.00;;;16.30;;
9834;SDS011;4956;50.996;13.716;2023-02-15T20:24:18;31.52;;;17.15;;
9834;SDS011;4956;50.996;13.716;2023-02-15T20:27:40;31.55;;;16.67;;
9834;SDS011;4956;50.996;13.716;2023-02-15T20:31:02;31.60;;;16.52;;
9834;SDS011;4956;50.996;13.716;2023-02-15T20:34:23;30.02;;;16.70;;
9834;SDS011;4956;50.996;13.716;2023-02-15T20:37:47;37.50;;;18.67;;
9834;SDS011;4956;50.996;13.716;2023-02-15T20:41:11;33.58;;;17.73;;
9834;SDS011;4956;50.996;13.716;2023-02-15T20:44:54;30.08;;;16.85;;
9834;SDS011;4956;50.996;13.716;2023-02-15T20:48:17;31.77;;;16.80;;
9834;SDS011;4956;50.996;13.716;2023-02-15T20:51:37;27.92;;;15.80;;
9834;SDS011;4956;50.996;13.716;2023-02-15T20:54:59;28.23;;;15.20;;
9834;SDS011;4956;50.996;13.716;2023-02-15T20:58:21;30.70;;;16.20;;
9834;SDS011;4956;50.996;13.716;2023-02-15T21:01:43;31.42;;;15.82;;
9834;SDS011;4956;50.996;13.716;2023-02-15T21:05:08;27.80;;;15.60;;
9834;SDS011;4956;50.996;13.716;2023-02-15T21:08:33;27.58;;;15.23;;
9834;SDS011;4956;50.996;13.716;2023-02-15T21:11:55;26.42;;;15.50;;
9834;SDS011;4956;50.996;13.716;2023-02-15T21:18:49;30.52;;;16.27;;
9834;SDS011;4956;50.996;13.716;2023-02-15T21:22:10;27.58;;;15.18;;
9834;SDS011;4956;50.996;13.716;2023-02-15T21:25:32;28.73;;;15.50;;
9834;SDS011;4956;50.996;13.716;2023-02-15T21:28:54;30.67;;;16.05;;
9834;SDS011;4956;50.996;13.716;2023-02-15T21:32:15;31.88;;;16.95;;
9834;SDS011;4956;50.996;13.716;2023-02-15T21:35:37;32.38;;;17.85;;
9834;SDS011;4956;50.996;13.716;2023-02-15T21:38:58;31.80;;;16.88;;
9834;SDS011;4956;50.996;13.716;2023-02-15T21:42:18;30.80;;;16.48;;
9834;SDS011;4956;50.996;13.716;2023-02-15T21:45:57;28.75;;;15.05;;
9834;SDS011;4956;50.996;13.716;2023-02-15T21:49:37;27.52;;;14.43;;
9834;SDS011;4956;50.996;13.716;2023-02-15T21:52:57;26.50;;;14.23;;
9834;SDS011;4956;50.996;13.716;2023-02-15T21:56:18;30.02;;;15.70;;
9834;SDS011;4956;50.996;13.716;2023-02-15T21:59:39;41.17;;;19.40;;
9834;SDS011;4956;50.996;13.716;2023-02-15T22:03:01;32.00;;;16.45;;
9834;SDS011;4956;50.996;13.716;2023-02-15T22:06:21;30.55;;;15.80;;
9834;SDS011;4956;50.996;13.716;2023-02-15T22:09:42;31.02;;;15.85;;
9834;SDS011;4956;50.996;13.716;2023-02-15T22:13:02;26.67;;;15.15;;
9834;SDS011;4956;50.996;13.716;2023-02-15T22:16:23;27.27;;;14.90;;
9834;SDS011;4956;50.996;13.716;2023-02-15T22:19:44;30.33;;;15.38;;
9834;SDS011;4956;50.996;13.716;2023-02-15T22:23:05;27.83;;;15.10;;
9834;SDS011;4956;50.996;13.716;2023-02-15T22:26:25;25.70;;;13.75;;
9834;SDS011;4956;50.996;13.716;2023-02-15T22:29:47;28.33;;;15.32;;
9834;SDS011;4956;50.996;13.716;2023-02-15T22:33:08;25.38;;;14.73;;
9834;SDS011;4956;50.996;13.716;2023-02-15T22:36:39;27.88;;;14.73;;
9834;SDS011;4956;50.996;13.716;2023-02-15T22:39:59;25.98;;;14.32;;
9834;SDS011;4956;50.996;13.716;2023-02-15T22:46:50;28.08;;;14.35;;